sensor_id;sensor_type;location;lat;lon;timestamp;pressure;altitude;pressure_sealevel;temperature;humidity
69751;BME280;57335;52.288;6.056;2023-08-21T00:01:26;102309.22;;;17.29;100.00
69751;BME280;57335;52.288;6.056;2023-08-21T00:03:52;102303.13;;;17.28;100.00
69751;BME280;57335;52.288;6.056;2023-08-21T00:06:18;102298.22;;;17.25;100.00
69751;BME280;57335;52.288;6.056;2023-08-21T00:08:45;102307.03;;;17.19;100.00
69751;BME280;57335;52.288;6.056;2023-08-21T00:11:11;102310.34;;;17.14;100.00
69751;BME280;57335;52.288;6.056;2023-08-21T00:13:38;102308.09;;;17.11;100.00
69751;BME280;57335;52.288;6.056;2023-08-21T00:16:04;102309.34;;;17.09;100.00
69751;BME280;57335;52.288;6.056;2023-08-21T00:18:31;102303.44;;;17.07;100.00
69751;BME280;57335;52.288;6.056;2023-08-21T00:20:57;102306.91;;;17.07;100.00
69751;BME280;57335;52.288;6.056;2023-08-21T00:23:23;102317.72;;;17.06;100.00
69751;BME280;57335;52.288;6.056;2023-08-21T00:25:50;102317.94;;;17.04;100.00
69751;BME280;57335;52.288;6.056;2023-08-21T00:28:16;102325.84;;;17.11;100.00
69751;BME280;57335;52.288;6.056;2023-08-21T00:30:43;102323.78;;;17.13;100.00
69751;BME280;57335;52.288;6.056;2023-08-21T00:33:09;102304.47;;;17.06;100.00
69751;BME280;57335;52.288;6.056;2023-08-21T00:35:36;102312.81;;;17.09;100.00
69751;BME280;57335;52.288;6.056;2023-08-21T00:38:02;102313.03;;;17.08;100.00
69751;BME280;57335;52.288;6.056;2023-08-21T00:40:31;102318.97;;;17.03;100.00
69751;BME280;57335;52.288;6.056;2023-08-21T00:42:57;102314.91;;;17.01;100.00
69751;BME280;57335;52.288;6.056;2023-08-21T00:45:24;102314.09;;;17.00;100.00
69751;BME280;57335;52.288;6.056;2023-08-21T00:47:50;102321.81;;;17.02;100.00
69751;BME280;57335;52.288;6.056;2023-08-21T00:50:17;102318.16;;;17.03;100.00
69751;BME280;57335;52.288;6.056;2023-08-21T00:52:45;102311.66;;;16.99;100.00
69751;BME280;57335;52.288;6.056;2023-08-21T00:55:12;102310.41;;;17.01;100.00
69751;BME280;57335;52.288;6.056;2023-08-21T00:57:39;102308.19;;;16.98;100.00
69751;BME280;57335;52.288;6.056;2023-08-21T01:00:07;102317.16;;;16.97;100.00
69751;BME280;57335;52.288;6.056;2023-08-21T01:02:34;102307.59;;;16.96;100.00
69751;BME280;57335;52.288;6.056;2023-08-21T01:05:00;102298.47;;;16.92;100.00
69751;BME280;57335;52.288;6.056;2023-08-21T01:07:27;102298.22;;;16.93;100.00
69751;BME280;57335;52.288;6.056;2023-08-21T01:09:54;102304.56;;;16.92;100.00
69751;BME280;57335;52.288;6.056;2023-08-21T01:12:35;102307.84;;;16.88;100.00
69751;BME280;57335;52.288;6.056;2023-08-21T01:15:06;102305.41;;;16.86;100.00
69751;BME280;57335;52.288;6.056;2023-08-21T01:17:42;102300.34;;;16.78;100.00
69751;BME280;57335;52.288;6.056;2023-08-21T01:20:10;102298.91;;;16.75;100.00
69751;BME280;57335;52.288;6.056;2023-08-21T01:22:39;102293.25;;;16.72;100.00
69751;BME280;57335;52.288;6.056;2023-08-21T01:25:07;102305.44;;;16.73;100.00
69751;BME280;57335;52.288;6.056;2023-08-21T01:27:34;102303.81;;;16.72;100.00
69751;BME280;57335;52.288;6.056;2023-08-21T01:30:03;102311.56;;;16.67;100.00
69751;BME280;57335;52.288;6.056;2023-08-21T01:32:40;102314.66;;;16.64;100.00
69751;BME280;57335;52.288;6.056;2023-08-21T01:35:09;102308.13;;;16.60;100.00
69751;BME280;57335;52.288;6.056;2023-08-21T01:37:37;102299.00;;;16.55;100.00
69751;BME280;57335;52.288;6.056;2023-08-21T01:40:05;102305.91;;;16.57;100.00
69751;BME280;57335;52.288;6.056;2023-08-21T01:42:31;102301.88;;;16.54;100.00
69751;BME280;57335;52.288;6.056;2023-08-21T01:44:58;102302.88;;;16.53;100.00
69751;BME280;57335;52.288;6.056;2023-08-21T01:47:24;102300.88;;;16.48;100.00
69751;BME280;57335;52.288;6.056;2023-08-21T01:49:51;102304.91;;;16.51;100.00
69751;BME280;57335;52.288;6.056;2023-08-21T01:52:18;102294.97;;;16.46;100.00
69751;BME280;57335;52.288;6.056;2023-08-21T01:54:44;102310.41;;;16.49;100.00
69751;BME280;57335;52.288;6.056;2023-08-21T01:57:11;102297.41;;;16.48;100.00
69751;BME280;57335;52.288;6.056;2023-08-21T01:59:37;102300.88;;;16.48;100.00
69751;BME280;57335;52.288;6.056;2023-08-21T02:02:03;102307.78;;;16.49;100.00
69751;BME280;57335;52.288;6.056;2023-08-21T02:04:30;102302.91;;;16.46;100.00
69751;BME280;57335;52.288;6.056;2023-08-21T02:06:56;102299.47;;;16.39;100.00
69751;BME280;57335;52.288;6.056;2023-08-21T02:09:22;102299.66;;;16.44;100.00
69751;BME280;57335;52.288;6.056;2023-08-21T02:11:49;102301.88;;;16.47;100.00
69751;BME280;57335;52.288;6.056;2023-08-21T02:14:15;102295.81;;;16.40;100.00
69751;BME280;57335;52.288;6.056;2023-08-21T02:16:42;102315.75;;;16.43;100.00
69751;BME280;57335;52.288;6.056;2023-08-21T02:19:08;102304.59;;;16.34;100.00
69751;BME280;57335;52.288;6.056;2023-08-21T02:21:35;102308.44;;;16.31;100.00
69751;BME280;57335;52.288;6.056;2023-08-21T02:24:01;102306.44;;;16.27;100.00
69751;BME280;57335;52.288;6.056;2023-08-21T02:26:28;102303.59;;;16.22;100.00
69751;BME280;57335;52.288;6.056;2023-08-21T02:28:54;102313.59;;;16.20;100.00
69751;BME280;57335;52.288;6.056;2023-08-21T02:31:20;102313.97;;;16.23;100.00
69751;BME280;57335;52.288;6.056;2023-08-21T02:33:47;102309.28;;;16.25;100.00
69751;BME280;57335;52.288;6.056;2023-08-21T02:36:13;102309.28;;;16.25;100.00
69751;BME280;57335;52.288;6.056;2023-08-21T02:38:40;102303.97;;;16.32;100.00
69751;BME280;57335;52.288;6.056;2023-08-21T02:41:06;102298.50;;;16.27;100.00
69751;BME280;57335;52.288;6.056;2023-08-21T02:43:33;102301.97;;;16.21;100.00
69751;BME280;57335;52.288;6.056;2023-08-21T02:46:00;102318.88;;;16.20;100.00
69751;BME280;57335;52.288;6.056;2023-08-21T02:48:26;102328.00;;;16.17;100.00
69751;BME280;57335;52.288;6.056;2023-08-21T02:50:52;102309.50;;;16.17;100.00
69751;BME280;57335;52.288;6.056;2023-08-21T02:53:19;102308.06;;;16.21;100.00
69751;BME280;57335;52.288;6.056;2023-08-21T02:55:45;102312.75;;;16.26;100.00
69751;BME280;57335;52.288;6.056;2023-08-21T02:58:12;102306.44;;;16.20;100.00
69751;BME280;57335;52.288;6.056;2023-08-21T03:00:38;102310.94;;;16.20;100.00
69751;BME280;57335;52.288;6.056;2023-08-21T03:03:05;102317.44;;;16.24;100.00
69751;BME280;57335;52.288;6.056;2023-08-21T03:05:31;102323.34;;;16.26;100.00
69751;BME280;57335;52.288;6.056;2023-08-21T03:07:57;102311.53;;;16.22;100.00
69751;BME280;57335;52.288;6.056;2023-08-21T03:10:24;102308.66;;;16.23;100.00
69751;BME280;57335;52.288;6.056;2023-08-21T03:12:50;102304.63;;;16.21;100.00
69751;BME280;57335;52.288;6.056;2023-08-21T03:15:17;102299.13;;;16.15;100.00
69751;BME280;57335;52.288;6.056;2023-08-21T03:17:43;102315.59;;;16.18;100.00
69751;BME280;57335;52.288;6.056;2023-08-21T03:20:10;102311.34;;;16.17;100.00
69751;BME280;57335;52.288;6.056;2023-08-21T03:22:36;102306.44;;;16.13;100.00
69751;BME280;57335;52.288;6.056;2023-08-21T03:25:03;102307.28;;;16.07;100.00
69751;BME280;57335;52.288;6.056;2023-08-21T03:27:30;102314.22;;;16.08;100.00
69751;BME280;57335;52.288;6.056;2023-08-21T03:29:56;102300.78;;;16.03;100.00
69751;BME280;57335;52.288;6.056;2023-08-21T03:32:23;102314.81;;;16.10;100.00
69751;BME280;57335;52.288;6.056;2023-08-21T03:34:49;102309.53;;;16.10;100.00
69751;BME280;57335;52.288;6.056;2023-08-21T03:37:15;102307.28;;;16.14;100.00
69751;BME280;57335;52.288;6.056;2023-08-21T03:39:43;102304.63;;;16.21;100.00
69751;BME280;57335;52.288;6.056;2023-08-21T03:42:09;102306.25;;;16.22;100.00
69751;BME280;57335;52.288;6.056;2023-08-21T03:44:37;102310.94;;;16.20;100.00
69751;BME280;57335;52.288;6.056;2023-08-21T03:47:04;102303.41;;;16.17;100.00
69751;BME280;57335;52.288;6.056;2023-08-21T03:49:30;102305.03;;;16.11;100.00
69751;BME280;57335;52.288;6.056;2023-08-21T03:51:57;102289.19;;;16.04;100.00
69751;BME280;57335;52.288;6.056;2023-08-21T03:54:23;102296.31;;;16.10;100.00
69751;BME280;57335;52.288;6.056;2023-08-21T03:56:50;102295.88;;;16.13;100.00
69751;BME280;57335;52.288;6.056;2023-08-21T03:59:16;102299.72;;;16.18;100.00
69751;BME280;57335;52.288;6.056;2023-08-21T04:01:42;102305.00;;;16.24;100.00
69751;BME280;57335;52.288;6.056;2023-08-21T04:04:09;102301.38;;;16.19;100.00
69751;BME280;57335;52.288;6.056;2023-08-21T04:06:35;102305.41;;;16.21;100.00
69751;BME280;57335;52.288;6.056;2023-08-21T04:09:02;102299.13;;;16.15;100.00
69751;BME280;57335;52.288;6.056;2023-08-21T04:11:28;102305.03;;;16.11;100.00
69751;BME280;57335;52.288;6.056;2023-08-21T04:13:54;102301.78;;;16.09;100.00
69751;BME280;57335;52.288;6.056;2023-08-21T04:16:21;102304.03;;;16.05;100.00
69751;BME280;57335;52.288;6.056;2023-08-21T04:18:48;102306.06;;;16.03;100.00
69751;BME280;57335;52.288;6.056;2023-08-21T04:21:14;102304.84;;;15.99;100.00
69751;BME280;57335;52.288;6.056;2023-08-21T04:23:40;102305.28;;;15.96;100.00
69751;BME280;57335;52.288;6.056;2023-08-21T04:26:07;102313.00;;;15.91;100.00
69751;BME280;57335;52.288;6.056;2023-08-21T04:28:33;102321.97;;;15.90;100.00
69751;BME280;57335;52.288;6.056;2023-08-21T04:31:00;102306.53;;;15.80;100.00
69751;BME280;57335;52.288;6.056;2023-08-21T04:33:29;102318.09;;;15.79;100.00
69751;BME280;57335;52.288;6.056;2023-08-21T04:35:55;102331.53;;;15.78;100.00
69751;BME280;57335;52.288;6.056;2023-08-21T04:38:22;102328.84;;;15.71;100.00
69751;BME280;57335;52.288;6.056;2023-08-21T04:40:49;102325.59;;;15.62;100.00
69751;BME280;57335;52.288;6.056;2023-08-21T04:43:15;102327.41;;;15.55;100.00
69751;BME280;57335;52.288;6.056;2023-08-21T04:45:51;102328.25;;;15.55;100.00
69751;BME280;57335;52.288;6.056;2023-08-21T04:48:18;102324.59;;;15.50;100.00
69751;BME280;57335;52.288;6.056;2023-08-21T04:50:45;102332.69;;;15.55;100.00
69751;BME280;57335;52.288;6.056;2023-08-21T04:53:12;102323.56;;;15.58;100.00
69751;BME280;57335;52.288;6.056;2023-08-21T04:55:39;102334.13;;;15.64;100.00
69751;BME280;57335;52.288;6.056;2023-08-21T04:58:07;102326.00;;;15.66;100.00
69751;BME280;57335;52.288;6.056;2023-08-21T05:00:33;102334.31;;;15.69;100.00
69751;BME280;57335;52.288;6.056;2023-08-21T05:03:00;102331.94;;;15.74;100.00
69751;BME280;57335;52.288;6.056;2023-08-21T05:05:27;102341.09;;;15.79;100.00
69751;BME280;57335;52.288;6.056;2023-08-21T05:07:53;102326.88;;;15.80;100.00
69751;BME280;57335;52.288;6.056;2023-08-21T05:10:20;102333.75;;;15.87;100.00
69751;BME280;57335;52.288;6.056;2023-08-21T05:12:46;102341.25;;;15.97;100.00
69751;BME280;57335;52.288;6.056;2023-08-21T05:15:13;102337.00;;;16.03;100.00
69751;BME280;57335;52.288;6.056;2023-08-21T05:17:39;102336.16;;;16.09;100.00
69751;BME280;57335;52.288;6.056;2023-08-21T05:20:06;102340.44;;;16.17;100.00
69751;BME280;57335;52.288;6.056;2023-08-21T05:22:32;102336.75;;;16.24;100.00
69751;BME280;57335;52.288;6.056;2023-08-21T05:24:59;102345.28;;;16.33;100.00
69751;BME280;57335;52.288;6.056;2023-08-21T05:27:25;102341.78;;;16.39;100.00
69751;BME280;57335;52.288;6.056;2023-08-21T05:29:52;102345.06;;;16.48;100.00
69751;BME280;57335;52.288;6.056;2023-08-21T05:32:18;102346.63;;;16.55;100.00
69751;BME280;57335;52.288;6.056;2023-08-21T05:34:44;102340.72;;;16.53;100.00
69751;BME280;57335;52.288;6.056;2023-08-21T05:37:11;102348.44;;;16.62;100.00
69751;BME280;57335;52.288;6.056;2023-08-21T05:39:37;102359.59;;;16.77;100.00
69751;BME280;57335;52.288;6.056;2023-08-21T05:42:04;102344.53;;;16.84;100.00
69751;BME280;57335;52.288;6.056;2023-08-21T05:44:30;102348.13;;;16.97;100.00
69751;BME280;57335;52.288;6.056;2023-08-21T05:46:57;102364.59;;;17.05;100.00
69751;BME280;57335;52.288;6.056;2023-08-21T05:49:23;102358.56;;;17.23;100.00
69751;BME280;57335;52.288;6.056;2023-08-21T05:51:50;102371.34;;;17.65;100.00
69751;BME280;57335;52.288;6.056;2023-08-21T05:54:16;102354.47;;;18.09;100.00
69751;BME280;57335;52.288;6.056;2023-08-21T05:56:42;102359.13;;;18.88;100.00
69751;BME280;57335;52.288;6.056;2023-08-21T05:59:12;102356.03;;;19.75;100.00
69751;BME280;57335;52.288;6.056;2023-08-21T06:01:38;102351.78;;;20.62;100.00
69751;BME280;57335;52.288;6.056;2023-08-21T06:04:05;102361.38;;;21.49;99.36
69751;BME280;57335;52.288;6.056;2023-08-21T06:06:31;102357.44;;;22.07;93.43
69751;BME280;57335;52.288;6.056;2023-08-21T06:08:58;102361.66;;;22.42;90.49
69751;BME280;57335;52.288;6.056;2023-08-21T06:11:24;102363.75;;;22.62;87.10
69751;BME280;57335;52.288;6.056;2023-08-21T06:13:50;102365.13;;;22.65;87.27
69751;BME280;57335;52.288;6.056;2023-08-21T06:16:17;102365.06;;;22.60;85.21
69751;BME280;57335;52.288;6.056;2023-08-21T06:18:43;102367.31;;;22.68;86.26
69751;BME280;57335;52.288;6.056;2023-08-21T06:21:10;102364.19;;;22.76;84.89
69751;BME280;57335;52.288;6.056;2023-08-21T06:23:36;102368.53;;;22.82;84.32
69751;BME280;57335;52.288;6.056;2023-08-21T06:26:02;102356.91;;;22.99;85.13
69751;BME280;57335;52.288;6.056;2023-08-21T06:28:29;102354.03;;;23.27;82.95
69751;BME280;57335;52.288;6.056;2023-08-21T06:30:56;102360.06;;;23.50;82.53
69751;BME280;57335;52.288;6.056;2023-08-21T06:33:23;102361.69;;;23.51;82.10
69751;BME280;57335;52.288;6.056;2023-08-21T06:35:49;102355.50;;;23.45;81.24
69751;BME280;57335;52.288;6.056;2023-08-21T06:38:16;102363.84;;;23.54;80.82
69751;BME280;57335;52.288;6.056;2023-08-21T06:40:44;102349.22;;;23.67;80.37
69751;BME280;57335;52.288;6.056;2023-08-21T06:43:11;102357.84;;;24.17;79.72
69751;BME280;57335;52.288;6.056;2023-08-21T06:45:37;102366.88;;;24.58;75.98
69751;BME280;57335;52.288;6.056;2023-08-21T06:48:04;102355.13;;;24.75;74.96
69751;BME280;57335;52.288;6.056;2023-08-21T06:50:30;102363.50;;;25.14;73.62
69751;BME280;57335;52.288;6.056;2023-08-21T06:52:57;102366.72;;;25.67;73.65
69751;BME280;57335;52.288;6.056;2023-08-21T06:55:23;102363.03;;;26.34;72.39
69751;BME280;57335;52.288;6.056;2023-08-21T06:57:50;102357.50;;;27.14;69.06
69751;BME280;57335;52.288;6.056;2023-08-21T07:00:16;102361.09;;;27.92;65.10
69751;BME280;57335;52.288;6.056;2023-08-21T07:02:42;102369.69;;;28.61;63.28
69751;BME280;57335;52.288;6.056;2023-08-21T07:05:09;102364.19;;;29.23;60.65
69751;BME280;57335;52.288;6.056;2023-08-21T07:07:38;102362.28;;;29.85;57.43
69751;BME280;57335;52.288;6.056;2023-08-21T07:10:05;102373.47;;;30.47;54.14
69751;BME280;57335;52.288;6.056;2023-08-21T07:12:31;102373.72;;;30.96;53.30
69751;BME280;57335;52.288;6.056;2023-08-21T07:14:57;102379.91;;;31.41;50.46
69751;BME280;57335;52.288;6.056;2023-08-21T07:17:24;102375.72;;;31.67;48.07
69751;BME280;57335;52.288;6.056;2023-08-21T07:19:50;102373.78;;;31.58;45.38
69751;BME280;57335;52.288;6.056;2023-08-21T07:22:17;102371.03;;;31.50;48.28
69751;BME280;57335;52.288;6.056;2023-08-21T07:24:43;102371.84;;;31.50;47.97
69751;BME280;57335;52.288;6.056;2023-08-21T07:27:09;102370.72;;;31.29;47.97
69751;BME280;57335;52.288;6.056;2023-08-21T07:29:36;102370.09;;;31.00;48.29
69751;BME280;57335;52.288;6.056;2023-08-21T07:32:02;102370.59;;;30.66;49.48
69751;BME280;57335;52.288;6.056;2023-08-21T07:34:29;102366.16;;;30.20;50.03
69751;BME280;57335;52.288;6.056;2023-08-21T07:36:55;102372.50;;;29.88;51.00
69751;BME280;57335;52.288;6.056;2023-08-21T07:39:21;102378.31;;;29.81;52.11
69751;BME280;57335;52.288;6.056;2023-08-21T07:41:48;102377.50;;;29.80;51.04
69751;BME280;57335;52.288;6.056;2023-08-21T07:44:14;102378.06;;;29.63;50.73
69751;BME280;57335;52.288;6.056;2023-08-21T07:46:41;102374.84;;;29.48;50.01
69751;BME280;57335;52.288;6.056;2023-08-21T07:49:07;102369.22;;;29.44;50.93
69751;BME280;57335;52.288;6.056;2023-08-21T07:51:33;102378.94;;;29.45;50.43
69751;BME280;57335;52.288;6.056;2023-08-21T07:54:00;102383.16;;;29.18;51.28
69751;BME280;57335;52.288;6.056;2023-08-21T07:56:26;102374.50;;;28.83;52.94
69751;BME280;57335;52.288;6.056;2023-08-21T07:58:53;102378.78;;;28.84;53.13
69751;BME280;57335;52.288;6.056;2023-08-21T08:01:19;102373.84;;;28.92;52.82
69751;BME280;57335;52.288;6.056;2023-08-21T08:03:45;102377.75;;;29.18;52.18
69751;BME280;57335;52.288;6.056;2023-08-21T08:06:12;102384.91;;;29.42;51.29
69751;BME280;57335;52.288;6.056;2023-08-21T08:08:38;102388.44;;;29.56;50.38
69751;BME280;57335;52.288;6.056;2023-08-21T08:11:05;102380.16;;;29.67;50.18
69751;BME280;57335;52.288;6.056;2023-08-21T08:13:32;102382.31;;;29.51;51.39
69751;BME280;57335;52.288;6.056;2023-08-21T08:15:58;102384.38;;;29.26;51.57
69751;BME280;57335;52.288;6.056;2023-08-21T08:18:24;102381.19;;;29.05;53.02
69751;BME280;57335;52.288;6.056;2023-08-21T08:20:51;102392.72;;;29.11;53.60
69751;BME280;57335;52.288;6.056;2023-08-21T08:23:17;102386.34;;;29.20;49.82
69751;BME280;57335;52.288;6.056;2023-08-21T08:25:47;102379.53;;;29.42;50.40
69751;BME280;57335;52.288;6.056;2023-08-21T08:28:13;102385.22;;;29.87;49.10
69751;BME280;57335;52.288;6.056;2023-08-21T08:30:39;102391.22;;;30.12;48.73
69751;BME280;57335;52.288;6.056;2023-08-21T08:33:06;102380.50;;;30.34;47.90
69751;BME280;57335;52.288;6.056;2023-08-21T08:35:32;102388.16;;;30.55;47.53
69751;BME280;57335;52.288;6.056;2023-08-21T08:37:59;102385.84;;;30.62;45.42
69751;BME280;57335;52.288;6.056;2023-08-21T08:40:25;102395.28;;;30.51;43.99
69751;BME280;57335;52.288;6.056;2023-08-21T08:42:51;102392.81;;;30.40;43.69
69751;BME280;57335;52.288;6.056;2023-08-21T08:45:27;102387.09;;;30.28;44.85
69751;BME280;57335;52.288;6.056;2023-08-21T08:47:54;102383.91;;;29.98;45.45
69751;BME280;57335;52.288;6.056;2023-08-21T08:50:21;102383.22;;;29.79;46.07
69751;BME280;57335;52.288;6.056;2023-08-21T08:52:48;102384.25;;;29.50;47.42
69751;BME280;57335;52.288;6.056;2023-08-21T08:55:17;102388.38;;;29.29;47.61
69751;BME280;57335;52.288;6.056;2023-08-21T08:57:43;102394.09;;;29.08;48.02
69751;BME280;57335;52.288;6.056;2023-08-21T09:00:10;102389.56;;;29.03;48.04
69751;BME280;57335;52.288;6.056;2023-08-21T09:02:37;102397.03;;;29.12;47.54
69751;BME280;57335;52.288;6.056;2023-08-21T09:05:04;102380.66;;;29.22;48.82
69751;BME280;57335;52.288;6.056;2023-08-21T09:07:30;102396.34;;;29.53;50.19
69751;BME280;57335;52.288;6.056;2023-08-21T09:09:57;102383.72;;;29.81;52.07
69751;BME280;57335;52.288;6.056;2023-08-21T09:12:23;102382.59;;;30.37;50.05
69751;BME280;57335;52.288;6.056;2023-08-21T09:14:49;102377.38;;;30.77;45.89
69751;BME280;57335;52.288;6.056;2023-08-21T09:17:16;102382.38;;;31.07;45.32
69751;BME280;57335;52.288;6.056;2023-08-21T09:19:43;102377.38;;;31.23;46.62
69751;BME280;57335;52.288;6.056;2023-08-21T09:22:17;102379.97;;;31.28;45.29
69751;BME280;57335;52.288;6.056;2023-08-21T09:25:19;102380.66;;;31.11;44.50
69751;BME280;57335;52.288;6.056;2023-08-21T09:27:45;102377.16;;;31.10;45.16
69751;BME280;57335;52.288;6.056;2023-08-21T09:30:12;102362.38;;;31.16;44.14
69751;BME280;57335;52.288;6.056;2023-08-21T09:32:59;102370.13;;;31.32;45.50
69751;BME280;57335;52.288;6.056;2023-08-21T09:35:26;102371.34;;;31.48;45.99
69751;BME280;57335;52.288;6.056;2023-08-21T09:37:52;102370.47;;;31.70;43.18
69751;BME280;57335;52.288;6.056;2023-08-21T09:40:20;102371.34;;;31.97;44.05
69751;BME280;57335;52.288;6.056;2023-08-21T09:42:54;102370.94;;;32.12;42.17
69751;BME280;57335;52.288;6.056;2023-08-21T09:45:27;102375.28;;;32.22;39.60
69751;BME280;57335;52.288;6.056;2023-08-21T09:47:54;102379.75;;;32.18;40.84
69751;BME280;57335;52.288;6.056;2023-08-21T09:50:21;102369.72;;;31.87;42.55
69751;BME280;57335;52.288;6.056;2023-08-21T09:52:48;102373.28;;;31.56;43.22
69751;BME280;57335;52.288;6.056;2023-08-21T09:55:15;102378.31;;;31.18;44.94
69751;BME280;57335;52.288;6.056;2023-08-21T09:57:41;102360.66;;;30.75;47.09
69751;BME280;57335;52.288;6.056;2023-08-21T10:00:08;102367.50;;;30.59;47.23
69751;BME280;57335;52.288;6.056;2023-08-21T10:02:35;102360.25;;;30.46;47.74
69751;BME280;57335;52.288;6.056;2023-08-21T10:05:01;102356.31;;;30.52;48.02
69751;BME280;57335;52.288;6.056;2023-08-21T10:07:28;102356.13;;;30.71;46.94
69751;BME280;57335;52.288;6.056;2023-08-21T10:09:55;102350.47;;;30.81;45.97
69751;BME280;57335;52.288;6.056;2023-08-21T10:12:22;102356.50;;;30.92;46.63
69751;BME280;57335;52.288;6.056;2023-08-21T10:14:51;102347.88;;;30.90;45.49
69751;BME280;57335;52.288;6.056;2023-08-21T10:17:17;102344.06;;;30.91;45.30
69751;BME280;57335;52.288;6.056;2023-08-21T10:19:50;102343.97;;;30.82;45.58
69751;BME280;57335;52.288;6.056;2023-08-21T10:22:44;102344.91;;;30.77;47.94
69751;BME280;57335;52.288;6.056;2023-08-21T10:25:15;102348.66;;;30.68;45.22
69751;BME280;57335;52.288;6.056;2023-08-21T10:27:42;102328.22;;;30.61;47.50
69751;BME280;57335;52.288;6.056;2023-08-21T10:30:15;102330.88;;;30.75;47.12
69751;BME280;57335;52.288;6.056;2023-08-21T10:32:47;102336.34;;;30.84;46.50
69751;BME280;57335;52.288;6.056;2023-08-21T10:35:15;102332.34;;;30.81;45.12
69751;BME280;57335;52.288;6.056;2023-08-21T10:38:17;102332.22;;;30.87;47.89
69751;BME280;57335;52.288;6.056;2023-08-21T10:41:06;102336.81;;;31.00;45.44
69751;BME280;57335;52.288;6.056;2023-08-21T10:43:40;102336.91;;;30.95;45.70
69751;BME280;57335;52.288;6.056;2023-08-21T10:46:07;102335.94;;;30.91;43.48
69751;BME280;57335;52.288;6.056;2023-08-21T10:48:34;102331.03;;;30.79;45.59
69751;BME280;57335;52.288;6.056;2023-08-21T10:51:02;102331.63;;;30.67;46.46
69751;BME280;57335;52.288;6.056;2023-08-21T10:53:30;102336.91;;;30.72;47.13
69751;BME280;57335;52.288;6.056;2023-08-21T10:55:59;102334.25;;;30.58;46.54
69751;BME280;57335;52.288;6.056;2023-08-21T10:58:26;102331.09;;;30.29;47.44
69751;BME280;57335;52.288;6.056;2023-08-21T11:00:57;102341.34;;;30.04;46.75
69751;BME280;57335;52.288;6.056;2023-08-21T11:03:23;102349.75;;;29.75;46.92
69751;BME280;57335;52.288;6.056;2023-08-21T11:06:07;102338.81;;;29.52;47.73
69751;BME280;57335;52.288;6.056;2023-08-21T11:08:34;102347.91;;;29.56;47.55
69751;BME280;57335;52.288;6.056;2023-08-21T11:11:02;102337.72;;;29.53;48.02
69751;BME280;57335;52.288;6.056;2023-08-21T11:13:29;102342.63;;;29.51;47.98
69751;BME280;57335;52.288;6.056;2023-08-21T11:16:04;102334.22;;;29.53;52.38
69751;BME280;57335;52.288;6.056;2023-08-21T11:18:37;102338.38;;;29.78;49.80
69751;BME280;57335;52.288;6.056;2023-08-21T11:21:05;102342.63;;;30.07;48.58
69751;BME280;57335;52.288;6.056;2023-08-21T11:23:33;102342.81;;;30.24;49.60
69751;BME280;57335;52.288;6.056;2023-08-21T11:26:00;102333.53;;;30.30;48.21
69751;BME280;57335;52.288;6.056;2023-08-21T11:28:45;102334.41;;;30.39;48.03
69751;BME280;57335;52.288;6.056;2023-08-21T11:31:12;102334.38;;;30.53;46.80
69751;BME280;57335;52.288;6.056;2023-08-21T11:33:38;102329.63;;;30.59;46.70
69751;BME280;57335;52.288;6.056;2023-08-21T11:36:05;102325.28;;;30.49;47.06
69751;BME280;57335;52.288;6.056;2023-08-21T11:38:31;102332.59;;;30.35;47.65
69751;BME280;57335;52.288;6.056;2023-08-21T11:41:00;102321.91;;;30.16;48.39
69751;BME280;57335;52.288;6.056;2023-08-21T11:43:42;102321.66;;;29.90;45.29
69751;BME280;57335;52.288;6.056;2023-08-21T11:46:10;102317.88;;;29.77;45.56
69751;BME280;57335;52.288;6.056;2023-08-21T11:48:37;102316.84;;;29.73;44.96
69751;BME280;57335;52.288;6.056;2023-08-21T11:51:04;102317.25;;;29.80;45.26
69751;BME280;57335;52.288;6.056;2023-08-21T11:55:58;102306.63;;;29.97;45.88
69751;BME280;57335;52.288;6.056;2023-08-21T11:58:26;102302.19;;;30.15;46.60
69751;BME280;57335;52.288;6.056;2023-08-21T12:00:53;102301.63;;;30.41;46.21
69751;BME280;57335;52.288;6.056;2023-08-21T12:03:19;102304.06;;;30.65;45.31
69751;BME280;57335;52.288;6.056;2023-08-21T12:05:46;102302.97;;;30.89;45.41
69751;BME280;57335;52.288;6.056;2023-08-21T12:08:12;102298.03;;;31.13;45.56
69751;BME280;57335;52.288;6.056;2023-08-21T12:10:39;102308.78;;;31.36;43.23
69751;BME280;57335;52.288;6.056;2023-08-21T12:13:07;102308.03;;;31.44;43.74
69751;BME280;57335;52.288;6.056;2023-08-21T12:15:33;102291.97;;;31.48;44.24
69751;BME280;57335;52.288;6.056;2023-08-21T12:18:00;102295.06;;;31.64;43.13
69751;BME280;57335;52.288;6.056;2023-08-21T12:20:26;102288.81;;;31.54;39.29
69751;BME280;57335;52.288;6.056;2023-08-21T12:22:53;102287.91;;;31.36;37.79
69751;BME280;57335;52.288;6.056;2023-08-21T12:25:19;102290.72;;;31.23;40.72
69751;BME280;57335;52.288;6.056;2023-08-21T12:27:46;102290.25;;;31.29;41.37
69751;BME280;57335;52.288;6.056;2023-08-21T12:30:23;102291.81;;;31.53;42.24
69751;BME280;57335;52.288;6.056;2023-08-21T12:32:49;102289.97;;;31.71;41.89
69751;BME280;57335;52.288;6.056;2023-08-21T12:35:15;102285.22;;;31.94;41.31
69751;BME280;57335;52.288;6.056;2023-08-21T12:37:42;102291.94;;;31.96;38.22
69751;BME280;57335;52.288;6.056;2023-08-21T12:40:08;102292.91;;;32.00;39.72
69751;BME280;57335;52.288;6.056;2023-08-21T12:42:35;102287.66;;;32.04;39.61
69751;BME280;57335;52.288;6.056;2023-08-21T12:45:02;102287.03;;;32.16;40.63
69751;BME280;57335;52.288;6.056;2023-08-21T12:47:29;102285.91;;;32.34;40.97
69751;BME280;57335;52.288;6.056;2023-08-21T12:49:55;102281.91;;;32.49;39.56